createdAt,value
2022-08-26T00:02:12.811Z,64.25
2022-08-26T00:04:41.132Z,64.27
2022-08-26T00:07:09.461Z,64.23
2022-08-26T00:09:40.239Z,64.29
2022-08-26T00:12:12.479Z,64.40
2022-08-26T00:14:40.986Z,64.55
2022-08-26T00:17:09.864Z,64.64
2022-08-26T00:19:38.319Z,64.81
2022-08-26T00:22:06.579Z,64.72
2022-08-26T00:24:34.998Z,64.95
2022-08-26T00:27:03.201Z,65.13
2022-08-26T00:29:35.529Z,65.20
2022-08-26T00:32:06.726Z,65.31
2022-08-26T00:34:35.216Z,65.43
2022-08-26T00:37:04.180Z,65.26
2022-08-26T00:39:37.241Z,65.44
2022-08-26T00:42:05.638Z,65.63
2022-08-26T00:44:34.504Z,65.42
2022-08-26T00:47:08.025Z,65.73
2022-08-26T00:49:39.800Z,65.77
2022-08-26T00:52:14.863Z,65.78
2022-08-26T00:54:49.674Z,65.96
2022-08-26T00:57:19.864Z,65.90
2022-08-26T00:59:53.228Z,66.11
2022-08-26T01:02:21.730Z,66.20
2022-08-26T01:04:59.645Z,66.15
2022-08-26T01:07:31.225Z,66.37
2022-08-26T01:10:03.355Z,66.47
2022-08-26T01:12:40.717Z,66.46
2022-08-26T01:15:13.884Z,66.49
2022-08-26T01:17:42.290Z,66.47
2022-08-26T01:20:30.355Z,66.68
2022-08-26T01:23:05.647Z,66.65
2022-08-26T01:25:43.563Z,66.60
2022-08-26T01:28:16.871Z,66.69
2022-08-26T01:30:48.974Z,66.97
2022-08-26T01:33:23.817Z,66.79
2022-08-26T01:35:52.395Z,66.94
2022-08-26T01:38:20.857Z,66.90
2022-08-26T01:40:52.045Z,67.12
2022-08-26T01:43:26.485Z,67.07
2022-08-26T01:45:57.145Z,67.00
2022-08-26T01:48:30.269Z,66.98
2022-08-26T01:51:00.897Z,66.94
2022-08-26T01:53:30.450Z,67.03
2022-08-26T01:56:00.704Z,67.04
2022-08-26T01:58:35.320Z,67.08
2022-08-26T02:01:05.011Z,67.00
2022-08-26T02:03:35.030Z,67.14
2022-08-26T02:06:09.268Z,66.93
2022-08-26T02:08:58.010Z,67.15
2022-08-26T02:11:26.247Z,67.04
2022-08-26T02:13:59.839Z,67.16
2022-08-26T02:16:32.342Z,67.16
2022-08-26T02:19:02.616Z,66.92
2022-08-26T02:21:32.570Z,67.20
2022-08-26T02:24:09.404Z,67.18
2022-08-26T02:26:39.240Z,67.20
2022-08-26T02:29:14.068Z,67.10
2022-08-26T02:31:43.025Z,66.86
2022-08-26T02:34:16.895Z,66.92
2022-08-26T02:36:45.056Z,67.02
2022-08-26T02:39:16.897Z,66.94
2022-08-26T02:41:50.568Z,66.83
2022-08-26T02:44:19.310Z,66.84
2022-08-26T02:46:48.407Z,66.89
2022-08-26T02:49:17.350Z,66.66
2022-08-26T02:51:47.111Z,66.43
2022-08-26T02:54:16.411Z,66.53
2022-08-26T02:56:44.839Z,66.49
2022-08-26T02:59:13.446Z,66.31
2022-08-26T03:01:43.013Z,66.41
2022-08-26T03:04:12.610Z,66.39
2022-08-26T03:06:42.289Z,66.23
2022-08-26T03:09:11.017Z,66.25
2022-08-26T03:11:47.418Z,66.25
2022-08-26T03:14:15.525Z,66.18
2022-08-26T03:16:44.182Z,66.11
2022-08-26T03:19:17.723Z,66.03
2022-08-26T03:21:47.357Z,66.05
2022-08-26T03:24:17.023Z,65.98
2022-08-26T03:26:52.664Z,66.18
2022-08-26T03:29:40.741Z,65.98
2022-08-26T03:32:09.623Z,65.97
2022-08-26T03:34:38.864Z,66.05
2022-08-26T03:37:07.153Z,65.87
2022-08-26T03:39:36.945Z,65.93
2022-08-26T03:42:06.668Z,65.81
2022-08-26T03:44:37.207Z,65.82
2022-08-26T03:47:10.570Z,65.90
2022-08-26T03:49:38.696Z,65.78
2022-08-26T03:52:07.730Z,65.78
2022-08-26T03:54:35.835Z,65.83
2022-08-26T03:57:04.285Z,65.78
2022-08-26T03:59:33.394Z,65.72
2022-08-26T04:02:01.663Z,65.75
2022-08-26T04:04:30.473Z,65.69
2022-08-26T04:07:00.050Z,65.80
2022-08-26T04:09:29.028Z,65.87
2022-08-26T04:11:58.761Z,65.78
2022-08-26T04:14:28.397Z,65.80
2022-08-26T04:16:57.205Z,66.00
2022-08-26T04:19:25.976Z,65.75
2022-08-26T04:21:54.770Z,65.90
2022-08-26T04:24:25.983Z,65.94
2022-08-26T04:26:56.673Z,66.02
2022-08-26T04:29:26.520Z,65.95
2022-08-26T04:31:56.431Z,65.92
2022-08-26T04:34:28.533Z,66.18
2022-08-26T04:36:58.062Z,65.95
2022-08-26T04:39:27.760Z,66.02
2022-08-26T04:41:57.813Z,66.05
2022-08-26T04:44:30.070Z,66.07
2022-08-26T04:46:58.848Z,66.10
2022-08-26T04:49:27.667Z,66.03
2022-08-26T04:51:56.464Z,66.21
2022-08-26T04:54:26.167Z,66.07
2022-08-26T04:56:54.434Z,66.00
2022-08-26T04:59:22.799Z,65.99
2022-08-26T05:01:57.843Z,65.96
2022-08-26T05:04:26.467Z,65.88
2022-08-26T05:06:59.249Z,65.89
2022-08-26T05:09:30.898Z,65.76
2022-08-26T05:11:59.084Z,65.64
2022-08-26T05:14:27.690Z,65.79
2022-08-26T05:16:55.925Z,65.25
2022-08-26T05:19:25.211Z,65.25
2022-08-26T05:21:56.105Z,65.15
2022-08-26T05:24:24.771Z,65.09
2022-08-26T05:26:54.335Z,65.08
2022-08-26T05:29:25.221Z,64.68
2022-08-26T05:31:53.525Z,64.25
2022-08-26T05:34:25.840Z,64.16
2022-08-26T05:36:59.006Z,63.83
2022-08-26T05:39:27.252Z,63.27
2022-08-26T05:41:55.493Z,62.85
2022-08-26T05:44:23.759Z,62.99
2022-08-26T05:46:51.948Z,62.33
2022-08-26T05:49:43.746Z,62.31
2022-08-26T05:52:20.585Z,62.14
2022-08-26T05:54:49.145Z,62.14
2022-08-26T05:57:17.360Z,62.22
2022-08-26T05:59:46.629Z,61.24
2022-08-26T06:02:14.901Z,61.45
2022-08-26T06:04:43.571Z,60.97
2022-08-26T06:07:12.164Z,60.04
2022-08-26T06:09:41.958Z,60.31
2022-08-26T06:12:10.882Z,60.29
2022-08-26T06:14:39.008Z,60.53
2022-08-26T06:17:09.623Z,59.95
2022-08-26T06:19:37.757Z,59.15
2022-08-26T06:22:29.550Z,60.08
2022-08-26T06:25:16.221Z,59.51
2022-08-26T06:27:44.640Z,59.10
2022-08-26T06:30:13.569Z,59.16
2022-08-26T06:32:41.737Z,59.16
2022-08-26T06:35:12.154Z,58.89
2022-08-26T06:37:41.241Z,59.01
2022-08-26T06:40:10.492Z,58.39
2022-08-26T06:42:39.912Z,58.54
2022-08-26T06:45:08.590Z,58.38
2022-08-26T06:47:37.160Z,58.31
2022-08-26T06:50:05.852Z,57.36
2022-08-26T06:52:33.971Z,57.80
2022-08-26T06:55:03.513Z,57.23
2022-08-26T06:57:33.003Z,57.17
2022-08-26T07:00:11.110Z,57.43
2022-08-26T07:02:40.939Z,56.82
2022-08-26T07:05:15.554Z,56.69
2022-08-26T07:07:43.834Z,56.87
2022-08-26T07:10:11.987Z,56.21
2022-08-26T07:12:40.106Z,56.42
2022-08-26T07:15:10.365Z,56.73
2022-08-26T07:17:38.515Z,56.16
2022-08-26T07:20:10.114Z,56.26
2022-08-26T07:22:39.120Z,56.58
2022-08-26T07:25:08.933Z,55.84
2022-08-26T07:27:39.038Z,56.42
2022-08-26T07:30:08.507Z,56.89
2022-08-26T07:32:37.858Z,55.50
2022-08-26T07:35:06.530Z,54.72
2022-08-26T07:37:35.538Z,54.63
2022-08-26T07:40:09.189Z,54.81
2022-08-26T07:42:37.739Z,55.01
2022-08-26T07:45:06.582Z,53.61
2022-08-26T07:47:35.169Z,54.12
2022-08-26T07:50:05.092Z,53.05
2022-08-26T07:52:34.813Z,53.15
2022-08-26T07:55:04.542Z,53.58
2022-08-26T07:57:33.695Z,53.20
2022-08-26T08:00:07.170Z,52.51
2022-08-26T08:02:40.391Z,52.45
2022-08-26T08:05:09.097Z,52.64
2022-08-26T08:07:45.370Z,52.19
2022-08-26T08:10:25.158Z,52.34
2022-08-26T08:12:57.612Z,52.20
2022-08-26T08:15:31.050Z,51.75
2022-08-26T08:18:00.983Z,51.34
2022-08-26T08:20:30.169Z,51.91
2022-08-26T08:22:58.438Z,51.87
2022-08-26T08:25:27.055Z,52.41
2022-08-26T08:27:55.219Z,50.83
2022-08-26T08:30:25.453Z,50.71
2022-08-26T08:32:53.635Z,50.96
2022-08-26T08:35:23.781Z,50.66
2022-08-26T08:37:54.595Z,49.97
2022-08-26T08:40:26.613Z,49.62
2022-08-26T08:43:02.200Z,49.13
2022-08-26T08:45:49.554Z,48.49
2022-08-26T08:48:28.040Z,49.37
2022-08-26T08:51:06.471Z,49.25
2022-08-26T08:53:39.539Z,47.37
2022-08-26T08:56:23.903Z,47.57
2022-08-26T08:59:00.849Z,47.64
2022-08-26T09:01:41.063Z,47.78
2022-08-26T09:04:18.458Z,47.63
2022-08-26T09:06:48.863Z,47.83
2022-08-26T09:09:23.798Z,47.55
2022-08-26T09:11:52.597Z,48.39
2022-08-26T09:14:20.721Z,47.55
2022-08-26T09:17:22.767Z,47.65
2022-08-26T09:20:09.648Z,47.57
2022-08-26T09:22:39.709Z,48.39
2022-08-26T09:25:15.085Z,48.28
2022-08-26T09:27:50.413Z,48.50
2022-08-26T09:30:33.218Z,48.33
2022-08-26T09:33:03.117Z,48.19
2022-08-26T09:35:47.237Z,47.59
2022-08-26T09:38:27.924Z,47.29
2022-08-26T09:40:59.618Z,47.45
2022-08-26T09:43:29.225Z,47.01
2022-08-26T09:46:18.501Z,47.15
2022-08-26T09:48:46.826Z,46.53
2022-08-26T09:51:26.641Z,46.58
2022-08-26T09:54:03.472Z,46.42
2022-08-26T09:56:39.219Z,46.55
2022-08-26T09:59:12.285Z,45.94
2022-08-26T10:01:43.222Z,45.49
2022-08-26T10:04:23.601Z,46.15
2022-08-26T10:07:08.348Z,45.92
2022-08-26T10:09:40.819Z,45.89
2022-08-26T10:12:17.822Z,45.89
2022-08-26T10:14:55.068Z,45.45
2022-08-26T10:17:35.851Z,45.46
2022-08-26T10:20:23.562Z,45.79
2022-08-26T10:23:24.907Z,45.68
2022-08-26T10:26:09.777Z,46.08
2022-08-26T10:28:52.275Z,46.24
2022-08-26T10:31:40.100Z,45.81
2022-08-26T10:34:13.881Z,45.72
2022-08-26T10:37:13.788Z,45.24
2022-08-26T10:40:02.003Z,45.29
2022-08-26T10:42:39.074Z,43.93
2022-08-26T10:45:16.761Z,43.71
2022-08-26T10:47:50.433Z,45.00
2022-08-26T10:50:20.473Z,44.41
2022-08-26T10:53:08.776Z,44.09
2022-08-26T10:56:15.786Z,44.21
2022-08-26T10:59:04.454Z,43.73
2022-08-26T11:02:24.697Z,43.95
2022-08-26T11:05:03.681Z,42.77
2022-08-26T11:07:46.602Z,43.55
2022-08-26T11:10:20.737Z,43.11
2022-08-26T11:12:54.417Z,42.39
2022-08-26T11:15:25.152Z,42.53
2022-08-26T11:17:53.268Z,42.33
2022-08-26T11:20:32.166Z,42.90
2022-08-26T11:23:13.384Z,43.19
2022-08-26T11:26:08.709Z,43.06
2022-08-26T11:28:38.578Z,42.31
2022-08-26T11:31:19.519Z,40.99
2022-08-26T11:33:57.270Z,40.69
2022-08-26T11:37:13.371Z,39.80
2022-08-26T11:39:55.051Z,40.69
2022-08-26T11:42:49.369Z,40.60
2022-08-26T11:45:40.123Z,40.81
2022-08-26T11:48:30.898Z,41.10
2022-08-26T11:51:11.279Z,41.32
2022-08-26T11:53:42.653Z,41.55
2022-08-26T11:56:17.556Z,41.89
2022-08-26T11:58:47.868Z,41.73
2022-08-26T12:01:31.193Z,41.79
2022-08-26T12:04:01.089Z,41.19
2022-08-26T12:06:43.460Z,41.80
2022-08-26T12:09:24.871Z,42.19
2022-08-26T12:12:08.795Z,41.87
2022-08-26T12:14:41.751Z,42.23
2022-08-26T12:17:14.020Z,41.80
2022-08-26T12:19:43.726Z,41.57
2022-08-26T12:22:21.031Z,41.01
2022-08-26T12:24:55.993Z,41.13
2022-08-26T12:27:26.151Z,40.82
2022-08-26T12:30:08.349Z,41.13
2022-08-26T12:32:57.199Z,40.69
2022-08-26T12:35:28.921Z,40.95
2022-08-26T12:37:58.382Z,40.76
2022-08-26T12:40:30.798Z,41.06
2022-08-26T12:43:02.039Z,40.97
2022-08-26T12:45:43.155Z,41.52
2022-08-26T12:48:21.040Z,40.86
2022-08-26T12:50:53.430Z,41.73
2022-08-26T12:53:25.974Z,41.11
2022-08-26T12:56:00.587Z,40.53
2022-08-26T12:58:35.360Z,39.51
2022-08-26T13:01:06.855Z,39.71
2022-08-26T13:03:35.244Z,38.87
2022-08-26T13:06:15.991Z,38.59
2022-08-26T13:08:53.867Z,39.53
2022-08-26T13:11:32.546Z,37.72
2022-08-26T13:14:07.445Z,38.56
2022-08-26T13:16:41.613Z,38.40
2022-08-26T13:19:15.726Z,37.77
2022-08-26T13:21:46.483Z,37.81
2022-08-26T13:24:20.081Z,37.65
2022-08-26T13:26:49.713Z,37.08
2022-08-26T13:29:18.792Z,38.09
2022-08-26T13:31:47.189Z,38.24
2022-08-26T13:34:21.101Z,37.81
2022-08-26T13:36:51.763Z,37.56
2022-08-26T13:39:20.968Z,37.41
2022-08-26T13:41:49.463Z,36.87
2022-08-26T13:44:18.319Z,37.15
2022-08-26T13:46:46.418Z,37.35
2022-08-26T13:49:14.586Z,37.19
2022-08-26T13:51:42.951Z,37.26
2022-08-26T13:54:11.133Z,37.29
2022-08-26T13:56:39.239Z,37.70
2022-08-26T13:59:07.436Z,37.66
2022-08-26T14:01:36.307Z,38.35
2022-08-26T14:04:04.528Z,38.29
2022-08-26T14:06:32.975Z,38.40
2022-08-26T14:09:01.064Z,38.32
2022-08-26T14:11:30.242Z,38.44
2022-08-26T14:14:09.623Z,37.99
2022-08-26T14:16:51.285Z,37.63
2022-08-26T14:19:30.125Z,37.41
2022-08-26T14:22:00.957Z,38.34
2022-08-26T14:24:29.780Z,38.58
2022-08-26T14:26:57.954Z,37.69
2022-08-26T14:29:26.467Z,37.86
2022-08-26T14:31:57.124Z,38.18
2022-08-26T14:34:25.621Z,38.45
2022-08-26T14:36:53.755Z,38.48
2022-08-26T14:39:22.450Z,38.27
2022-08-26T14:41:55.799Z,38.14
2022-08-26T14:44:28.153Z,38.28
2022-08-26T14:46:57.353Z,38.45
2022-08-26T14:49:27.405Z,38.21
2022-08-26T14:51:55.736Z,38.51
2022-08-26T14:54:24.116Z,38.72
2022-08-26T14:56:55.681Z,38.44
2022-08-26T14:59:27.051Z,38.90
2022-08-26T15:01:56.301Z,38.82
2022-08-26T15:04:25.339Z,39.34
2022-08-26T15:06:55.644Z,39.02
2022-08-26T15:09:24.987Z,39.50
2022-08-26T15:11:53.566Z,39.73
2022-08-26T15:14:22.980Z,39.78
2022-08-26T15:16:54.223Z,40.12
2022-08-26T15:19:24.325Z,39.87
2022-08-26T15:21:52.786Z,40.18
2022-08-26T15:24:24.262Z,40.21
2022-08-26T15:26:53.176Z,39.87
2022-08-26T15:29:23.969Z,39.94
2022-08-26T15:31:52.293Z,40.02
2022-08-26T15:34:25.473Z,39.80
2022-08-26T15:36:54.208Z,39.99
2022-08-26T15:39:22.329Z,40.23
2022-08-26T15:41:51.042Z,39.81
2022-08-26T15:44:19.796Z,39.32
2022-08-26T15:46:49.295Z,39.52
2022-08-26T15:49:18.798Z,39.86
2022-08-26T15:51:50.367Z,39.50
2022-08-26T15:54:22.279Z,39.69
2022-08-26T15:56:52.431Z,40.13
2022-08-26T15:59:22.661Z,40.03
2022-08-26T16:01:52.075Z,40.28
2022-08-26T16:04:20.497Z,40.31
2022-08-26T16:06:52.150Z,40.39
2022-08-26T16:09:24.397Z,40.40
2022-08-26T16:11:57.231Z,40.44
2022-08-26T16:14:26.301Z,40.37
2022-08-26T16:16:54.778Z,40.34
2022-08-26T16:19:23.247Z,39.96
2022-08-26T16:21:52.063Z,40.28
2022-08-26T16:24:28.479Z,40.57
2022-08-26T16:26:58.712Z,40.65
2022-08-26T16:29:27.169Z,40.53
2022-08-26T16:31:55.443Z,40.72
2022-08-26T16:34:23.819Z,40.72
2022-08-26T16:36:53.112Z,40.94
2022-08-26T16:39:21.321Z,40.92
2022-08-26T16:41:49.463Z,40.75
2022-08-26T16:44:17.705Z,41.17
2022-08-26T16:46:45.926Z,41.07
2022-08-26T16:49:14.353Z,41.28
2022-08-26T16:51:42.514Z,41.34
2022-08-26T16:54:10.794Z,41.55
2022-08-26T16:56:39.279Z,41.65
2022-08-26T16:59:11.575Z,41.80
2022-08-26T17:01:40.002Z,41.85
2022-08-26T17:04:08.811Z,42.08
2022-08-26T17:06:37.194Z,42.27
2022-08-26T17:09:05.354Z,42.34
2022-08-26T17:11:34.823Z,42.64
2022-08-26T17:14:03.065Z,42.75
2022-08-26T17:16:32.297Z,42.81
2022-08-26T17:19:00.842Z,42.92
2022-08-26T17:21:29.665Z,42.98
2022-08-26T17:23:58.116Z,43.02
2022-08-26T17:26:27.886Z,43.19
2022-08-26T17:28:56.123Z,43.24
2022-08-26T17:31:24.390Z,43.28
2022-08-26T17:33:53.447Z,43.28
2022-08-26T17:36:27.856Z,43.31
2022-08-26T17:38:58.021Z,43.46
2022-08-26T17:41:27.429Z,43.38
2022-08-26T17:43:55.713Z,43.40
2022-08-26T17:46:24.783Z,43.46
2022-08-26T17:48:53.080Z,43.38
2022-08-26T17:51:23.627Z,43.42
2022-08-26T17:53:52.166Z,43.37
2022-08-26T17:56:27.919Z,43.13
2022-08-26T17:59:02.254Z,43.38
2022-08-26T18:01:31.821Z,43.38
2022-08-26T18:04:00.904Z,43.58
2022-08-26T18:06:30.730Z,43.66
2022-08-26T18:09:00.650Z,43.90
2022-08-26T18:11:30.119Z,43.87
2022-08-26T18:13:59.081Z,43.91
2022-08-26T18:16:31.494Z,44.14
2022-08-26T18:19:00.358Z,44.06
2022-08-26T18:21:28.537Z,43.97
2022-08-26T18:23:56.989Z,44.13
2022-08-26T18:26:37.791Z,44.15
2022-08-26T18:29:07.296Z,44.24
2022-08-26T18:31:35.388Z,44.26
2022-08-26T18:34:04.913Z,44.31
2022-08-26T18:36:40.306Z,44.14
2022-08-26T18:39:09.490Z,44.22
2022-08-26T18:41:44.222Z,44.09
2022-08-26T18:44:14.111Z,44.17
2022-08-26T18:46:42.954Z,44.16
2022-08-26T18:49:16.740Z,44.05
2022-08-26T18:51:45.514Z,44.15
2022-08-26T18:54:14.418Z,44.28
2022-08-26T18:56:43.998Z,44.28
2022-08-26T18:59:13.127Z,44.39
2022-08-26T19:01:42.569Z,44.38
2022-08-26T19:04:14.053Z,44.66
2022-08-26T19:06:47.690Z,44.69
2022-08-26T19:09:17.879Z,44.79
2022-08-26T19:11:47.036Z,44.85
2022-08-26T19:14:18.793Z,44.94
2022-08-26T19:16:50.030Z,45.10
2022-08-26T19:19:20.839Z,45.15
2022-08-26T19:21:48.915Z,45.24
2022-08-26T19:24:18.777Z,45.37
2022-08-26T19:26:57.999Z,45.44
2022-08-26T19:29:32.094Z,45.53
2022-08-26T19:32:02.055Z,45.57
2022-08-26T19:34:30.767Z,45.38
2022-08-26T19:36:59.041Z,45.43
2022-08-26T19:39:27.381Z,45.47
2022-08-26T19:41:55.726Z,45.39
2022-08-26T19:44:42.851Z,45.47
2022-08-26T19:47:12.286Z,45.52
2022-08-26T19:49:40.546Z,45.70
2022-08-26T19:52:11.162Z,45.71
2022-08-26T19:54:39.925Z,45.75
2022-08-26T19:57:08.137Z,45.76
2022-08-26T19:59:36.442Z,45.63
2022-08-26T20:02:08.631Z,45.47
2022-08-26T20:04:39.914Z,45.55
2022-08-26T20:07:09.620Z,45.62
2022-08-26T20:09:38.586Z,45.69
2022-08-26T20:12:07.532Z,45.64
2022-08-26T20:14:36.747Z,45.66
2022-08-26T20:17:06.205Z,45.58
2022-08-26T20:19:53.473Z,45.78
2022-08-26T20:22:22.287Z,45.86
2022-08-26T20:24:50.526Z,45.92
2022-08-26T20:27:18.880Z,45.98
2022-08-26T20:29:46.989Z,46.13
2022-08-26T20:32:15.257Z,46.31
2022-08-26T20:34:43.396Z,46.28
2022-08-26T20:37:12.328Z,46.39
2022-08-26T20:39:41.503Z,46.45
2022-08-26T20:42:20.019Z,46.61
2022-08-26T20:44:55.037Z,46.67
2022-08-26T20:47:23.426Z,46.76
2022-08-26T20:49:52.592Z,46.84
2022-08-26T20:52:20.963Z,46.85
2022-08-26T20:54:49.166Z,46.90
2022-08-26T20:57:17.312Z,46.97
2022-08-26T20:59:45.392Z,46.95
2022-08-26T21:02:13.533Z,47.18
2022-08-26T21:04:41.726Z,47.24
2022-08-26T21:07:09.938Z,47.29
2022-08-26T21:09:38.237Z,47.33
2022-08-26T21:12:06.830Z,47.41
2022-08-26T21:14:35.129Z,47.56
2022-08-26T21:17:04.073Z,47.62
2022-08-26T21:19:32.141Z,47.81
2022-08-26T21:22:00.248Z,47.84
2022-08-26T21:24:28.394Z,47.92
2022-08-26T21:26:56.675Z,47.90
2022-08-26T21:29:24.979Z,47.96
2022-08-26T21:31:53.185Z,47.96
2022-08-26T21:34:21.508Z,48.04
2022-08-26T21:36:50.020Z,48.06
2022-08-26T21:39:18.226Z,48.18
2022-08-26T21:41:47.338Z,48.26
2022-08-26T21:44:17.670Z,48.36
2022-08-26T21:46:47.040Z,48.48
2022-08-26T21:49:16.132Z,48.46
2022-08-26T21:51:47.902Z,48.41
2022-08-26T21:54:18.143Z,48.63
2022-08-26T21:56:47.216Z,48.72
2022-08-26T21:59:17.800Z,48.81
2022-08-26T22:01:47.879Z,48.85
2022-08-26T22:04:16.158Z,49.00
2022-08-26T22:06:50.127Z,49.08
2022-08-26T22:09:22.622Z,49.08
2022-08-26T22:11:51.333Z,49.17
2022-08-26T22:14:27.356Z,49.24
2022-08-26T22:16:59.216Z,49.53
2022-08-26T22:19:27.582Z,49.59
2022-08-26T22:21:57.084Z,49.73
2022-08-26T22:24:27.197Z,49.82
2022-08-26T22:26:55.842Z,49.95
2022-08-26T22:29:25.231Z,49.82
2022-08-26T22:31:53.751Z,49.99
2022-08-26T22:34:23.253Z,50.11
2022-08-26T22:36:51.494Z,50.18
2022-08-26T22:39:22.581Z,50.22
2022-08-26T22:41:52.465Z,50.29
2022-08-26T22:44:22.303Z,50.32
2022-08-26T22:46:54.332Z,50.58
2022-08-26T22:49:23.177Z,50.60
2022-08-26T22:51:51.631Z,50.74
2022-08-26T22:54:20.350Z,50.71
2022-08-26T22:56:48.810Z,50.82
2022-08-26T22:59:16.965Z,50.93
2022-08-26T23:01:46.604Z,50.91
2022-08-26T23:04:15.209Z,50.86
2022-08-26T23:06:47.526Z,51.04
2022-08-26T23:09:18.705Z,50.95
2022-08-26T23:11:48.701Z,51.09
2022-08-26T23:14:18.601Z,51.02
2022-08-26T23:16:47.876Z,51.26
2022-08-26T23:19:18.769Z,51.29
2022-08-26T23:21:47.432Z,51.43
2022-08-26T23:24:17.364Z,51.30
2022-08-26T23:26:46.301Z,51.58
2022-08-26T23:29:15.758Z,51.56
2022-08-26T23:31:44.302Z,51.49
2022-08-26T23:34:31.254Z,51.68
2022-08-26T23:37:01.006Z,51.64
2022-08-26T23:39:32.202Z,51.57
2022-08-26T23:42:01.784Z,51.65
2022-08-26T23:44:30.928Z,51.57
2022-08-26T23:46:59.831Z,51.61
2022-08-26T23:49:29.014Z,51.84
2022-08-26T23:52:16.846Z,51.72
2022-08-26T23:54:47.780Z,51.66
2022-08-26T23:57:18.495Z,51.83
2022-08-26T23:59:47.135Z,51.68
